sensor_id;sensor_type;location;lat;lon;timestamp;P1;durP1;ratioP1;P2;durP2;ratioP2
45322;SDS011;31382;50.200;8.674;2023-02-15T00:00:39;39.88;;;14.27;;
45322;SDS011;31382;50.200;8.674;2023-02-15T00:05:41;35.85;;;14.25;;
45322;SDS011;31382;50.200;8.674;2023-02-15T00:10:42;36.30;;;13.82;;
45322;SDS011;31382;50.200;8.674;2023-02-15T00:15:43;37.47;;;15.13;;
45322;SDS011;31382;50.200;8.674;2023-02-15T00:20:45;34.38;;;14.27;;
45322;SDS011;31382;50.200;8.674;2023-02-15T00:25:46;35.42;;;14.95;;
45322;SDS011;31382;50.200;8.674;2023-02-15T00:30:47;39.55;;;16.05;;
45322;SDS011;31382;50.200;8.674;2023-02-15T00:35:55;40.72;;;15.13;;
45322;SDS011;31382;50.200;8.674;2023-02-15T00:40:58;37.58;;;14.30;;
45322;SDS011;31382;50.200;8.674;2023-02-15T00:46:02;32.53;;;13.00;;
45322;SDS011;31382;50.200;8.674;2023-02-15T00:51:05;31.10;;;13.57;;
45322;SDS011;31382;50.200;8.674;2023-02-15T00:56:07;35.30;;;14.23;;
45322;SDS011;31382;50.200;8.674;2023-02-15T01:01:12;39.95;;;14.65;;
45322;SDS011;31382;50.200;8.674;2023-02-15T01:06:16;35.75;;;15.45;;
45322;SDS011;31382;50.200;8.674;2023-02-15T01:11:19;34.28;;;14.77;;
45322;SDS011;31382;50.200;8.674;2023-02-15T01:16:26;37.55;;;15.70;;
45322;SDS011;31382;50.200;8.674;2023-02-15T01:21:29;32.20;;;14.93;;
45322;SDS011;31382;50.200;8.674;2023-02-15T01:26:30;30.05;;;13.95;;
45322;SDS011;31382;50.200;8.674;2023-02-15T01:31:31;33.08;;;14.00;;
45322;SDS011;31382;50.200;8.674;2023-02-15T01:36:33;36.10;;;15.57;;
45322;SDS011;31382;50.200;8.674;2023-02-15T01:41:35;32.58;;;15.95;;
45322;SDS011;31382;50.200;8.674;2023-02-15T01:46:38;36.92;;;16.20;;
45322;SDS011;31382;50.200;8.674;2023-02-15T01:51:44;41.60;;;17.07;;
45322;SDS011;31382;50.200;8.674;2023-02-15T01:56:48;40.58;;;17.40;;
45322;SDS011;31382;50.200;8.674;2023-02-15T02:01:53;39.60;;;17.27;;
45322;SDS011;31382;50.200;8.674;2023-02-15T02:06:59;37.22;;;17.23;;
45322;SDS011;31382;50.200;8.674;2023-02-15T02:12:01;38.78;;;17.52;;
45322;SDS011;31382;50.200;8.674;2023-02-15T02:27:26;39.17;;;17.95;;
45322;SDS011;31382;50.200;8.674;2023-02-15T02:38:04;47.03;;;19.27;;
45322;SDS011;31382;50.200;8.674;2023-02-15T02:43:18;44.97;;;19.45;;
45322;SDS011;31382;50.200;8.674;2023-02-15T02:48:27;51.95;;;19.25;;
45322;SDS011;31382;50.200;8.674;2023-02-15T02:53:32;43.30;;;19.48;;
45322;SDS011;31382;50.200;8.674;2023-02-15T03:03:59;56.28;;;21.13;;
45322;SDS011;31382;50.200;8.674;2023-02-15T03:09:20;56.22;;;22.77;;
45322;SDS011;31382;50.200;8.674;2023-02-15T03:14:51;53.28;;;20.40;;
45322;SDS011;31382;50.200;8.674;2023-02-15T03:19:57;47.85;;;20.15;;
45322;SDS011;31382;50.200;8.674;2023-02-15T03:25:07;49.20;;;21.40;;
45322;SDS011;31382;50.200;8.674;2023-02-15T03:30:09;51.97;;;21.20;;
45322;SDS011;31382;50.200;8.674;2023-02-15T03:35:13;50.78;;;20.58;;
45322;SDS011;31382;50.200;8.674;2023-02-15T03:40:16;49.20;;;20.90;;
45322;SDS011;31382;50.200;8.674;2023-02-15T03:45:55;48.58;;;19.80;;
45322;SDS011;31382;50.200;8.674;2023-02-15T03:51:03;49.92;;;19.55;;
45322;SDS011;31382;50.200;8.674;2023-02-15T03:56:27;50.53;;;20.92;;
45322;SDS011;31382;50.200;8.674;2023-02-15T04:01:36;51.58;;;20.15;;
45322;SDS011;31382;50.200;8.674;2023-02-15T04:06:59;56.03;;;22.02;;
45322;SDS011;31382;50.200;8.674;2023-02-15T04:12:01;50.72;;;20.75;;
45322;SDS011;31382;50.200;8.674;2023-02-15T04:17:04;54.03;;;20.60;;
45322;SDS011;31382;50.200;8.674;2023-02-15T04:22:07;55.47;;;20.50;;
45322;SDS011;31382;50.200;8.674;2023-02-15T04:27:27;49.22;;;19.38;;
45322;SDS011;31382;50.200;8.674;2023-02-15T04:32:28;51.35;;;20.88;;
45322;SDS011;31382;50.200;8.674;2023-02-15T04:37:30;52.97;;;19.45;;
45322;SDS011;31382;50.200;8.674;2023-02-15T04:42:31;49.05;;;19.95;;
45322;SDS011;31382;50.200;8.674;2023-02-15T04:47:33;51.88;;;20.15;;
45322;SDS011;31382;50.200;8.674;2023-02-15T04:52:34;54.03;;;20.58;;
45322;SDS011;31382;50.200;8.674;2023-02-15T04:57:36;56.60;;;18.80;;
45322;SDS011;31382;50.200;8.674;2023-02-15T05:02:38;59.70;;;20.67;;
45322;SDS011;31382;50.200;8.674;2023-02-15T05:07:39;62.92;;;21.67;;
45322;SDS011;31382;50.200;8.674;2023-02-15T05:12:40;54.63;;;20.75;;
45322;SDS011;31382;50.200;8.674;2023-02-15T05:17:42;59.90;;;22.52;;
45322;SDS011;31382;50.200;8.674;2023-02-15T05:22:43;59.50;;;21.85;;
45322;SDS011;31382;50.200;8.674;2023-02-15T05:27:45;60.20;;;22.42;;
45322;SDS011;31382;50.200;8.674;2023-02-15T05:33:06;52.28;;;20.65;;
45322;SDS011;31382;50.200;8.674;2023-02-15T05:38:08;57.30;;;21.55;;
45322;SDS011;31382;50.200;8.674;2023-02-15T05:43:09;49.80;;;18.95;;
45322;SDS011;31382;50.200;8.674;2023-02-15T05:48:11;59.05;;;21.77;;
45322;SDS011;31382;50.200;8.674;2023-02-15T05:53:12;59.55;;;20.42;;
45322;SDS011;31382;50.200;8.674;2023-02-15T05:58:14;61.17;;;23.17;;
45322;SDS011;31382;50.200;8.674;2023-02-15T06:03:15;60.22;;;22.42;;
45322;SDS011;31382;50.200;8.674;2023-02-15T06:08:17;66.05;;;20.10;;
45322;SDS011;31382;50.200;8.674;2023-02-15T06:13:18;66.60;;;22.88;;
45322;SDS011;31382;50.200;8.674;2023-02-15T06:18:20;73.28;;;23.52;;
45322;SDS011;31382;50.200;8.674;2023-02-15T06:23:21;64.28;;;21.95;;
45322;SDS011;31382;50.200;8.674;2023-02-15T06:28:23;68.28;;;22.08;;
45322;SDS011;31382;50.200;8.674;2023-02-15T06:33:26;71.95;;;23.45;;
45322;SDS011;31382;50.200;8.674;2023-02-15T06:38:28;68.50;;;23.08;;
45322;SDS011;31382;50.200;8.674;2023-02-15T06:43:29;69.22;;;20.35;;
45322;SDS011;31382;50.200;8.674;2023-02-15T06:48:31;74.32;;;22.70;;
45322;SDS011;31382;50.200;8.674;2023-02-15T06:53:32;66.95;;;22.08;;
45322;SDS011;31382;50.200;8.674;2023-02-15T06:58:34;67.65;;;20.73;;
45322;SDS011;31382;50.200;8.674;2023-02-15T07:03:36;66.88;;;22.02;;
45322;SDS011;31382;50.200;8.674;2023-02-15T07:08:38;64.07;;;23.00;;
45322;SDS011;31382;50.200;8.674;2023-02-15T07:13:40;66.85;;;20.48;;
45322;SDS011;31382;50.200;8.674;2023-02-15T07:18:43;71.03;;;21.75;;
45322;SDS011;31382;50.200;8.674;2023-02-15T07:23:46;76.25;;;24.42;;
45322;SDS011;31382;50.200;8.674;2023-02-15T07:28:47;69.28;;;23.05;;
45322;SDS011;31382;50.200;8.674;2023-02-15T07:33:49;68.63;;;22.42;;
45322;SDS011;31382;50.200;8.674;2023-02-15T07:38:51;73.43;;;22.02;;
45322;SDS011;31382;50.200;8.674;2023-02-15T07:43:52;84.75;;;23.55;;
45322;SDS011;31382;50.200;8.674;2023-02-15T07:48:54;61.97;;;21.75;;
45322;SDS011;31382;50.200;8.674;2023-02-15T07:53:56;67.80;;;21.20;;
45322;SDS011;31382;50.200;8.674;2023-02-15T07:58:57;67.18;;;20.67;;
45322;SDS011;31382;50.200;8.674;2023-02-15T08:04:01;71.80;;;21.65;;
45322;SDS011;31382;50.200;8.674;2023-02-15T08:09:04;66.93;;;20.85;;
45322;SDS011;31382;50.200;8.674;2023-02-15T08:24:18;66.57;;;20.80;;
45322;SDS011;31382;50.200;8.674;2023-02-15T08:29:22;71.70;;;22.17;;
45322;SDS011;31382;50.200;8.674;2023-02-15T08:34:25;66.43;;;22.52;;
45322;SDS011;31382;50.200;8.674;2023-02-15T08:39:27;64.93;;;20.38;;
45322;SDS011;31382;50.200;8.674;2023-02-15T08:44:29;63.70;;;19.77;;
45322;SDS011;31382;50.200;8.674;2023-02-15T08:49:31;53.53;;;16.73;;
45322;SDS011;31382;50.200;8.674;2023-02-15T08:54:32;53.90;;;16.35;;
45322;SDS011;31382;50.200;8.674;2023-02-15T08:59:34;46.20;;;16.13;;
45322;SDS011;31382;50.200;8.674;2023-02-15T09:04:35;48.60;;;16.20;;
45322;SDS011;31382;50.200;8.674;2023-02-15T09:09:36;49.35;;;15.95;;
45322;SDS011;31382;50.200;8.674;2023-02-15T09:14:38;42.92;;;15.48;;
45322;SDS011;31382;50.200;8.674;2023-02-15T09:19:39;51.70;;;18.08;;
45322;SDS011;31382;50.200;8.674;2023-02-15T09:24:40;49.88;;;15.38;;
45322;SDS011;31382;50.200;8.674;2023-02-15T09:29:42;44.72;;;15.27;;
45322;SDS011;31382;50.200;8.674;2023-02-15T09:34:43;40.70;;;14.10;;
45322;SDS011;31382;50.200;8.674;2023-02-15T09:39:45;41.45;;;15.05;;
45322;SDS011;31382;50.200;8.674;2023-02-15T09:55:51;40.90;;;15.55;;
45322;SDS011;31382;50.200;8.674;2023-02-15T10:01:07;34.70;;;14.18;;
45322;SDS011;31382;50.200;8.674;2023-02-15T10:17:31;29.55;;;13.15;;
45322;SDS011;31382;50.200;8.674;2023-02-15T10:28:21;29.52;;;13.15;;
45322;SDS011;31382;50.200;8.674;2023-02-15T10:33:32;32.15;;;13.57;;
45322;SDS011;31382;50.200;8.674;2023-02-15T10:38:42;33.20;;;14.25;;
45322;SDS011;31382;50.200;8.674;2023-02-15T10:54:44;34.88;;;15.55;;
45322;SDS011;31382;50.200;8.674;2023-02-15T10:59:59;34.35;;;14.38;;
45322;SDS011;31382;50.200;8.674;2023-02-15T11:10:37;40.60;;;16.70;;
45322;SDS011;31382;50.200;8.674;2023-02-15T11:21:30;45.08;;;17.73;;
45322;SDS011;31382;50.200;8.674;2023-02-15T11:26:43;39.55;;;17.35;;
45322;SDS011;31382;50.200;8.674;2023-02-15T11:42:37;37.78;;;15.85;;
45322;SDS011;31382;50.200;8.674;2023-02-15T11:47:38;40.10;;;16.50;;
45322;SDS011;31382;50.200;8.674;2023-02-15T11:52:39;36.92;;;15.40;;
45322;SDS011;31382;50.200;8.674;2023-02-15T11:57:42;36.17;;;16.20;;
45322;SDS011;31382;50.200;8.674;2023-02-15T12:02:50;32.08;;;14.57;;
45322;SDS011;31382;50.200;8.674;2023-02-15T12:08:01;39.20;;;16.58;;
45322;SDS011;31382;50.200;8.674;2023-02-15T12:13:22;28.98;;;10.98;;
45322;SDS011;31382;50.200;8.674;2023-02-15T12:18:38;37.45;;;16.20;;
45322;SDS011;31382;50.200;8.674;2023-02-15T12:23:46;35.63;;;15.93;;
45322;SDS011;31382;50.200;8.674;2023-02-15T12:28:50;43.20;;;17.75;;
45322;SDS011;31382;50.200;8.674;2023-02-15T12:33:53;41.95;;;17.58;;
45322;SDS011;31382;50.200;8.674;2023-02-15T12:49:20;47.15;;;17.70;;
45322;SDS011;31382;50.200;8.674;2023-02-15T12:59:24;51.92;;;19.35;;
45322;SDS011;31382;50.200;8.674;2023-02-15T13:04:28;47.30;;;19.40;;
45322;SDS011;31382;50.200;8.674;2023-02-15T13:14:32;48.63;;;19.10;;
45322;SDS011;31382;50.200;8.674;2023-02-15T13:19:35;50.90;;;21.63;;
45322;SDS011;31382;50.200;8.674;2023-02-15T13:24:46;52.13;;;21.73;;
45322;SDS011;31382;50.200;8.674;2023-02-15T13:29:54;54.15;;;21.73;;
45322;SDS011;31382;50.200;8.674;2023-02-15T13:35:00;54.58;;;21.15;;
45322;SDS011;31382;50.200;8.674;2023-02-15T13:40:18;54.53;;;22.45;;
45322;SDS011;31382;50.200;8.674;2023-02-15T13:56:22;63.63;;;23.88;;
45322;SDS011;31382;50.200;8.674;2023-02-15T14:01:41;57.72;;;22.83;;
45322;SDS011;31382;50.200;8.674;2023-02-15T14:12:34;63.63;;;24.60;;
45322;SDS011;31382;50.200;8.674;2023-02-15T14:17:48;58.47;;;23.15;;
45322;SDS011;31382;50.200;8.674;2023-02-15T14:28:34;58.63;;;23.13;;
45322;SDS011;31382;50.200;8.674;2023-02-15T14:33:59;60.00;;;24.85;;
45322;SDS011;31382;50.200;8.674;2023-02-15T14:44:58;62.80;;;24.00;;
45322;SDS011;31382;50.200;8.674;2023-02-15T14:55:35;63.13;;;27.52;;
45322;SDS011;31382;50.200;8.674;2023-02-15T15:00:38;66.00;;;26.27;;
45322;SDS011;31382;50.200;8.674;2023-02-15T15:05:54;69.60;;;26.98;;
45322;SDS011;31382;50.200;8.674;2023-02-15T15:16:46;66.70;;;26.35;;
45322;SDS011;31382;50.200;8.674;2023-02-15T15:27:04;69.32;;;25.15;;
45322;SDS011;31382;50.200;8.674;2023-02-15T15:32:30;66.43;;;26.65;;
45322;SDS011;31382;50.200;8.674;2023-02-15T15:37:41;67.22;;;25.88;;
45322;SDS011;31382;50.200;8.674;2023-02-15T15:48:19;59.38;;;25.95;;
45322;SDS011;31382;50.200;8.674;2023-02-15T15:53:29;69.93;;;26.08;;
45322;SDS011;31382;50.200;8.674;2023-02-15T15:58:42;67.28;;;26.17;;
45322;SDS011;31382;50.200;8.674;2023-02-15T16:03:48;70.20;;;26.20;;
45322;SDS011;31382;50.200;8.674;2023-02-15T16:08:54;69.15;;;28.13;;
45322;SDS011;31382;50.200;8.674;2023-02-15T16:13:55;69.78;;;25.45;;
45322;SDS011;31382;50.200;8.674;2023-02-15T16:18:57;61.92;;;24.33;;
45322;SDS011;31382;50.200;8.674;2023-02-15T16:29:32;71.53;;;26.98;;
45322;SDS011;31382;50.200;8.674;2023-02-15T16:34:34;63.00;;;24.75;;
45322;SDS011;31382;50.200;8.674;2023-02-15T16:39:36;69.13;;;26.83;;
45322;SDS011;31382;50.200;8.674;2023-02-15T16:44:43;77.78;;;27.73;;
45322;SDS011;31382;50.200;8.674;2023-02-15T16:49:46;81.32;;;27.52;;
45322;SDS011;31382;50.200;8.674;2023-02-15T16:54:53;74.43;;;26.90;;
45322;SDS011;31382;50.200;8.674;2023-02-15T17:00:06;84.63;;;29.15;;
45322;SDS011;31382;50.200;8.674;2023-02-15T17:10:25;87.57;;;32.20;;
45322;SDS011;31382;50.200;8.674;2023-02-15T17:15:33;78.72;;;30.75;;
45322;SDS011;31382;50.200;8.674;2023-02-15T17:20:37;82.05;;;31.90;;
45322;SDS011;31382;50.200;8.674;2023-02-15T17:25:42;73.30;;;28.50;;
45322;SDS011;31382;50.200;8.674;2023-02-15T17:30:44;79.22;;;30.63;;
45322;SDS011;31382;50.200;8.674;2023-02-15T17:41:12;71.90;;;30.02;;
45322;SDS011;31382;50.200;8.674;2023-02-15T17:46:17;68.88;;;27.63;;
45322;SDS011;31382;50.200;8.674;2023-02-15T17:51:19;63.45;;;26.52;;
45322;SDS011;31382;50.200;8.674;2023-02-15T17:56:22;60.72;;;26.85;;
45322;SDS011;31382;50.200;8.674;2023-02-15T18:01:23;70.35;;;28.65;;
45322;SDS011;31382;50.200;8.674;2023-02-15T18:06:43;68.30;;;28.10;;
45322;SDS011;31382;50.200;8.674;2023-02-15T18:12:14;70.30;;;27.08;;
45322;SDS011;31382;50.200;8.674;2023-02-15T18:17:33;67.25;;;26.65;;
45322;SDS011;31382;50.200;8.674;2023-02-15T18:22:39;67.43;;;23.87;;
45322;SDS011;31382;50.200;8.674;2023-02-15T18:27:40;69.05;;;26.77;;
45322;SDS011;31382;50.200;8.674;2023-02-15T18:32:41;73.97;;;26.90;;
45322;SDS011;31382;50.200;8.674;2023-02-15T18:37:46;63.42;;;26.00;;
45322;SDS011;31382;50.200;8.674;2023-02-15T18:42:48;65.05;;;26.67;;
45322;SDS011;31382;50.200;8.674;2023-02-15T18:47:50;63.05;;;25.38;;
45322;SDS011;31382;50.200;8.674;2023-02-15T18:52:51;61.13;;;24.98;;
45322;SDS011;31382;50.200;8.674;2023-02-15T18:57:57;60.40;;;26.88;;
45322;SDS011;31382;50.200;8.674;2023-02-15T19:02:59;63.40;;;26.05;;
45322;SDS011;31382;50.200;8.674;2023-02-15T19:08:04;62.47;;;25.67;;
45322;SDS011;31382;50.200;8.674;2023-02-15T19:13:17;62.72;;;24.83;;
45322;SDS011;31382;50.200;8.674;2023-02-15T19:18:18;62.13;;;25.77;;
45322;SDS011;31382;50.200;8.674;2023-02-15T19:23:20;63.65;;;27.25;;
45322;SDS011;31382;50.200;8.674;2023-02-15T19:28:25;69.30;;;27.70;;
45322;SDS011;31382;50.200;8.674;2023-02-15T19:38:32;71.57;;;27.42;;
45322;SDS011;31382;50.200;8.674;2023-02-15T19:43:37;68.32;;;28.10;;
45322;SDS011;31382;50.200;8.674;2023-02-15T19:48:39;73.28;;;28.65;;
45322;SDS011;31382;50.200;8.674;2023-02-15T19:53:40;78.00;;;28.88;;
45322;SDS011;31382;50.200;8.674;2023-02-15T19:58:41;73.78;;;27.52;;
45322;SDS011;31382;50.200;8.674;2023-02-15T20:03:43;75.03;;;30.13;;
45322;SDS011;31382;50.200;8.674;2023-02-15T20:08:44;83.43;;;29.02;;
45322;SDS011;31382;50.200;8.674;2023-02-15T20:13:46;77.80;;;32.08;;
45322;SDS011;31382;50.200;8.674;2023-02-15T20:18:47;79.32;;;31.30;;
45322;SDS011;31382;50.200;8.674;2023-02-15T20:23:49;88.53;;;30.48;;
45322;SDS011;31382;50.200;8.674;2023-02-15T20:28:50;75.00;;;28.48;;
45322;SDS011;31382;50.200;8.674;2023-02-15T20:33:52;80.30;;;29.98;;
45322;SDS011;31382;50.200;8.674;2023-02-15T20:38:54;72.68;;;29.90;;
45322;SDS011;31382;50.200;8.674;2023-02-15T20:43:57;86.95;;;30.20;;
45322;SDS011;31382;50.200;8.674;2023-02-15T20:48:58;79.28;;;29.45;;
45322;SDS011;31382;50.200;8.674;2023-02-15T20:54:00;89.85;;;31.02;;
45322;SDS011;31382;50.200;8.674;2023-02-15T20:59:01;83.97;;;30.75;;
45322;SDS011;31382;50.200;8.674;2023-02-15T21:04:07;81.45;;;30.05;;
45322;SDS011;31382;50.200;8.674;2023-02-15T21:09:11;85.28;;;30.85;;
45322;SDS011;31382;50.200;8.674;2023-02-15T21:14:21;84.97;;;31.33;;
45322;SDS011;31382;50.200;8.674;2023-02-15T21:19:25;81.32;;;29.63;;
45322;SDS011;31382;50.200;8.674;2023-02-15T21:24:27;88.07;;;30.25;;
45322;SDS011;31382;50.200;8.674;2023-02-15T21:29:29;72.25;;;27.02;;
45322;SDS011;31382;50.200;8.674;2023-02-15T21:34:31;82.18;;;31.73;;
45322;SDS011;31382;50.200;8.674;2023-02-15T21:39:32;74.88;;;27.42;;
45322;SDS011;31382;50.200;8.674;2023-02-15T21:44:36;84.22;;;30.05;;
45322;SDS011;31382;50.200;8.674;2023-02-15T21:49:56;80.57;;;27.90;;
45322;SDS011;31382;50.200;8.674;2023-02-15T21:54:58;86.40;;;30.58;;
45322;SDS011;31382;50.200;8.674;2023-02-15T22:00:00;74.78;;;28.55;;
45322;SDS011;31382;50.200;8.674;2023-02-15T22:05:05;78.13;;;28.13;;
45322;SDS011;31382;50.200;8.674;2023-02-15T22:10:13;80.82;;;29.65;;
45322;SDS011;31382;50.200;8.674;2023-02-15T22:15:22;82.10;;;28.15;;
45322;SDS011;31382;50.200;8.674;2023-02-15T22:20:25;79.70;;;30.17;;
45322;SDS011;31382;50.200;8.674;2023-02-15T22:25:26;82.55;;;29.38;;
45322;SDS011;31382;50.200;8.674;2023-02-15T22:30:29;84.15;;;28.80;;
45322;SDS011;31382;50.200;8.674;2023-02-15T22:35:33;77.30;;;27.02;;
45322;SDS011;31382;50.200;8.674;2023-02-15T22:40:36;88.75;;;28.83;;
45322;SDS011;31382;50.200;8.674;2023-02-15T22:45:38;90.10;;;29.33;;
45322;SDS011;31382;50.200;8.674;2023-02-15T22:50:39;82.43;;;29.17;;
45322;SDS011;31382;50.200;8.674;2023-02-15T22:55:41;90.10;;;30.45;;
45322;SDS011;31382;50.200;8.674;2023-02-15T23:00:42;79.82;;;28.73;;
45322;SDS011;31382;50.200;8.674;2023-02-15T23:05:45;91.25;;;30.33;;
45322;SDS011;31382;50.200;8.674;2023-02-15T23:10:48;89.13;;;29.52;;
45322;SDS011;31382;50.200;8.674;2023-02-15T23:15:58;72.78;;;22.30;;
45322;SDS011;31382;50.200;8.674;2023-02-15T23:21:02;95.45;;;29.67;;
45322;SDS011;31382;50.200;8.674;2023-02-15T23:26:20;92.32;;;31.63;;
45322;SDS011;31382;50.200;8.674;2023-02-15T23:31:24;98.90;;;32.45;;
45322;SDS011;31382;50.200;8.674;2023-02-15T23:36:32;98.55;;;30.67;;
45322;SDS011;31382;50.200;8.674;2023-02-15T23:41:35;97.35;;;33.47;;
45322;SDS011;31382;50.200;8.674;2023-02-15T23:46:43;86.50;;;29.60;;
45322;SDS011;31382;50.200;8.674;2023-02-15T23:51:47;88.20;;;29.45;;
45322;SDS011;31382;50.200;8.674;2023-02-15T23:56:51;96.38;;;31.08;;
